sensor_id;sensor_type;location;lat;lon;timestamp;temperature;humidity
38239;DHT22;24035;48.900;9.188;2022-08-20T00:00:27;20.40;99.90
38239;DHT22;24035;48.900;9.188;2022-08-20T00:02:58;20.30;99.90
38239;DHT22;24035;48.900;9.188;2022-08-20T00:05:35;20.20;99.90
38239;DHT22;24035;48.900;9.188;2022-08-20T00:08:01;20.10;99.90
38239;DHT22;24035;48.900;9.188;2022-08-20T00:10:29;20.00;99.90
38239;DHT22;24035;48.900;9.188;2022-08-20T00:12:55;19.90;99.90
38239;DHT22;24035;48.900;9.188;2022-08-20T00:15:25;19.70;1.00
38239;DHT22;24035;48.900;9.188;2022-08-20T00:17:52;19.70;1.00
38239;DHT22;24035;48.900;9.188;2022-08-20T00:20:21;19.70;1.00
38239;DHT22;24035;48.900;9.188;2022-08-20T00:22:48;19.70;1.00
38239;DHT22;24035;48.900;9.188;2022-08-20T00:25:15;19.70;1.00
38239;DHT22;24035;48.900;9.188;2022-08-20T00:27:41;19.60;1.00
38239;DHT22;24035;48.900;9.188;2022-08-20T00:30:09;19.60;1.00
38239;DHT22;24035;48.900;9.188;2022-08-20T00:32:53;19.60;1.00
38239;DHT22;24035;48.900;9.188;2022-08-20T00:35:22;19.60;1.00
38239;DHT22;24035;48.900;9.188;2022-08-20T00:37:48;19.50;1.00
38239;DHT22;24035;48.900;9.188;2022-08-20T00:40:18;19.50;1.00
38239;DHT22;24035;48.900;9.188;2022-08-20T00:42:47;19.40;1.00
38239;DHT22;24035;48.900;9.188;2022-08-20T00:45:14;19.40;1.00
38239;DHT22;24035;48.900;9.188;2022-08-20T00:47:40;19.40;1.00
38239;DHT22;24035;48.900;9.188;2022-08-20T00:50:11;19.40;1.00
38239;DHT22;24035;48.900;9.188;2022-08-20T00:52:39;19.40;2.20
38239;DHT22;24035;48.900;9.188;2022-08-20T00:55:07;19.30;53.70
38239;DHT22;24035;48.900;9.188;2022-08-20T00:57:40;19.20;99.90
38239;DHT22;24035;48.900;9.188;2022-08-20T01:00:19;19.20;99.90
38239;DHT22;24035;48.900;9.188;2022-08-20T01:02:47;19.20;99.90
38239;DHT22;24035;48.900;9.188;2022-08-20T01:05:13;19.10;99.90
38239;DHT22;24035;48.900;9.188;2022-08-20T01:07:40;19.00;99.90
38239;DHT22;24035;48.900;9.188;2022-08-20T01:10:16;19.00;1.00
38239;DHT22;24035;48.900;9.188;2022-08-20T01:12:45;18.90;1.00
38239;DHT22;24035;48.900;9.188;2022-08-20T01:15:14;19.00;1.00
38239;DHT22;24035;48.900;9.188;2022-08-20T01:17:47;19.00;1.00
38239;DHT22;24035;48.900;9.188;2022-08-20T01:20:20;18.90;1.00
38239;DHT22;24035;48.900;9.188;2022-08-20T01:26:16;18.90;1.00
38239;DHT22;24035;48.900;9.188;2022-08-20T01:31:17;18.90;1.00
38239;DHT22;24035;48.900;9.188;2022-08-20T01:33:43;18.90;1.00
38239;DHT22;24035;48.900;9.188;2022-08-20T01:36:10;18.90;1.00
38239;DHT22;24035;48.900;9.188;2022-08-20T01:38:37;18.90;1.00
38239;DHT22;24035;48.900;9.188;2022-08-20T01:43:37;18.80;1.00
38239;DHT22;24035;48.900;9.188;2022-08-20T01:46:08;18.90;1.00
38239;DHT22;24035;48.900;9.188;2022-08-20T01:48:35;19.00;1.00
38239;DHT22;24035;48.900;9.188;2022-08-20T01:51:09;18.90;1.00
38239;DHT22;24035;48.900;9.188;2022-08-20T01:53:42;18.90;1.00
38239;DHT22;24035;48.900;9.188;2022-08-20T01:56:11;18.90;1.00
38239;DHT22;24035;48.900;9.188;2022-08-20T01:58:43;18.90;1.00
38239;DHT22;24035;48.900;9.188;2022-08-20T02:01:22;18.90;1.00
38239;DHT22;24035;48.900;9.188;2022-08-20T02:03:49;19.00;1.00
38239;DHT22;24035;48.900;9.188;2022-08-20T02:06:15;19.10;1.00
38239;DHT22;24035;48.900;9.188;2022-08-20T02:08:41;19.10;1.00
38239;DHT22;24035;48.900;9.188;2022-08-20T02:11:07;19.20;1.00
38239;DHT22;24035;48.900;9.188;2022-08-20T02:13:33;19.20;99.90
38239;DHT22;24035;48.900;9.188;2022-08-20T02:15:58;19.20;99.90
38239;DHT22;24035;48.900;9.188;2022-08-20T02:18:24;19.10;1.00
38239;DHT22;24035;48.900;9.188;2022-08-20T02:20:50;19.00;1.00
38239;DHT22;24035;48.900;9.188;2022-08-20T02:23:17;19.00;1.00
38239;DHT22;24035;48.900;9.188;2022-08-20T02:25:45;18.90;1.00
38239;DHT22;24035;48.900;9.188;2022-08-20T02:28:17;19.00;1.00
38239;DHT22;24035;48.900;9.188;2022-08-20T02:30:48;18.90;1.00
38239;DHT22;24035;48.900;9.188;2022-08-20T02:33:16;19.00;1.00
38239;DHT22;24035;48.900;9.188;2022-08-20T02:35:45;19.00;1.00
38239;DHT22;24035;48.900;9.188;2022-08-20T02:38:12;19.00;1.00
38239;DHT22;24035;48.900;9.188;2022-08-20T02:40:42;19.00;1.00
38239;DHT22;24035;48.900;9.188;2022-08-20T02:43:09;19.10;1.00
38239;DHT22;24035;48.900;9.188;2022-08-20T02:45:34;19.20;1.00
38239;DHT22;24035;48.900;9.188;2022-08-20T02:48:09;19.20;1.00
38239;DHT22;24035;48.900;9.188;2022-08-20T02:50:35;19.10;1.00
38239;DHT22;24035;48.900;9.188;2022-08-20T02:53:01;19.10;1.00
38239;DHT22;24035;48.900;9.188;2022-08-20T02:55:26;19.10;1.00
38239;DHT22;24035;48.900;9.188;2022-08-20T02:57:59;19.00;1.00
38239;DHT22;24035;48.900;9.188;2022-08-20T03:00:27;19.00;1.00
38239;DHT22;24035;48.900;9.188;2022-08-20T03:02:55;19.00;1.00
38239;DHT22;24035;48.900;9.188;2022-08-20T03:05:21;19.00;1.00
38239;DHT22;24035;48.900;9.188;2022-08-20T03:07:49;19.00;1.00
38239;DHT22;24035;48.900;9.188;2022-08-20T03:10:24;19.10;1.00
38239;DHT22;24035;48.900;9.188;2022-08-20T03:12:50;19.10;1.00
38239;DHT22;24035;48.900;9.188;2022-08-20T03:15:17;19.10;1.00
38239;DHT22;24035;48.900;9.188;2022-08-20T03:17:43;19.10;1.00
38239;DHT22;24035;48.900;9.188;2022-08-20T03:20:09;19.20;1.00
38239;DHT22;24035;48.900;9.188;2022-08-20T03:22:35;19.20;1.00
38239;DHT22;24035;48.900;9.188;2022-08-20T03:25:01;19.30;1.00
38239;DHT22;24035;48.900;9.188;2022-08-20T03:27:26;19.40;1.00
38239;DHT22;24035;48.900;9.188;2022-08-20T03:29:52;19.40;1.00
38239;DHT22;24035;48.900;9.188;2022-08-20T03:32:17;19.40;1.00
38239;DHT22;24035;48.900;9.188;2022-08-20T03:34:43;19.40;1.00
38239;DHT22;24035;48.900;9.188;2022-08-20T03:37:09;19.40;1.00
38239;DHT22;24035;48.900;9.188;2022-08-20T03:39:36;19.50;99.90
38239;DHT22;24035;48.900;9.188;2022-08-20T03:42:03;19.50;99.90
38239;DHT22;24035;48.900;9.188;2022-08-20T03:44:28;19.50;99.90
38239;DHT22;24035;48.900;9.188;2022-08-20T03:46:54;19.50;99.90
38239;DHT22;24035;48.900;9.188;2022-08-20T03:49:20;19.50;99.90
38239;DHT22;24035;48.900;9.188;2022-08-20T03:51:45;19.50;1.00
38239;DHT22;24035;48.900;9.188;2022-08-20T03:54:11;19.40;99.90
38239;DHT22;24035;48.900;9.188;2022-08-20T03:56:38;19.50;99.90
38239;DHT22;24035;48.900;9.188;2022-08-20T03:59:03;19.50;99.90
38239;DHT22;24035;48.900;9.188;2022-08-20T04:01:29;19.50;99.90
38239;DHT22;24035;48.900;9.188;2022-08-20T04:03:55;19.50;1.00
38239;DHT22;24035;48.900;9.188;2022-08-20T04:06:23;19.50;1.00
38239;DHT22;24035;48.900;9.188;2022-08-20T04:08:49;19.60;99.90
38239;DHT22;24035;48.900;9.188;2022-08-20T04:11:15;19.60;99.90
38239;DHT22;24035;48.900;9.188;2022-08-20T04:13:41;19.70;99.90
38239;DHT22;24035;48.900;9.188;2022-08-20T04:16:07;19.70;99.90
38239;DHT22;24035;48.900;9.188;2022-08-20T04:18:34;19.60;99.90
38239;DHT22;24035;48.900;9.188;2022-08-20T04:21:02;19.60;1.00
38239;DHT22;24035;48.900;9.188;2022-08-20T04:23:28;19.60;99.90
38239;DHT22;24035;48.900;9.188;2022-08-20T04:25:54;19.60;99.90
38239;DHT22;24035;48.900;9.188;2022-08-20T04:28:22;19.70;99.90
38239;DHT22;24035;48.900;9.188;2022-08-20T04:31:01;19.70;99.90
38239;DHT22;24035;48.900;9.188;2022-08-20T04:33:28;19.70;1.00
38239;DHT22;24035;48.900;9.188;2022-08-20T04:35:58;19.70;99.90
38239;DHT22;24035;48.900;9.188;2022-08-20T04:38:28;19.80;99.90
38239;DHT22;24035;48.900;9.188;2022-08-20T04:40:54;19.80;99.90
38239;DHT22;24035;48.900;9.188;2022-08-20T04:45:50;19.90;99.90
38239;DHT22;24035;48.900;9.188;2022-08-20T04:48:20;19.80;99.90
38239;DHT22;24035;48.900;9.188;2022-08-20T04:50:49;19.90;99.90
38239;DHT22;24035;48.900;9.188;2022-08-20T04:53:16;19.90;99.90
38239;DHT22;24035;48.900;9.188;2022-08-20T04:55:43;19.90;99.90
38239;DHT22;24035;48.900;9.188;2022-08-20T04:58:34;19.90;99.90
38239;DHT22;24035;48.900;9.188;2022-08-20T05:01:04;20.00;99.90
38239;DHT22;24035;48.900;9.188;2022-08-20T05:03:31;20.00;99.90
38239;DHT22;24035;48.900;9.188;2022-08-20T05:05:57;20.10;99.90
38239;DHT22;24035;48.900;9.188;2022-08-20T05:08:24;20.10;99.90
38239;DHT22;24035;48.900;9.188;2022-08-20T05:10:52;20.10;92.90
38239;DHT22;24035;48.900;9.188;2022-08-20T05:13:18;20.10;85.40
38239;DHT22;24035;48.900;9.188;2022-08-20T05:15:43;20.20;1.00
38239;DHT22;24035;48.900;9.188;2022-08-20T05:18:19;20.20;1.00
38239;DHT22;24035;48.900;9.188;2022-08-20T05:20:46;20.20;1.00
38239;DHT22;24035;48.900;9.188;2022-08-20T05:23:14;20.30;1.00
38239;DHT22;24035;48.900;9.188;2022-08-20T05:25:42;20.30;1.00
38239;DHT22;24035;48.900;9.188;2022-08-20T05:28:16;20.30;1.00
38239;DHT22;24035;48.900;9.188;2022-08-20T05:30:43;20.30;1.00
38239;DHT22;24035;48.900;9.188;2022-08-20T05:33:10;20.30;1.00
38239;DHT22;24035;48.900;9.188;2022-08-20T05:35:39;20.20;1.00
38239;DHT22;24035;48.900;9.188;2022-08-20T05:38:07;20.20;1.00
38239;DHT22;24035;48.900;9.188;2022-08-20T05:40:34;20.20;6.60
38239;DHT22;24035;48.900;9.188;2022-08-20T05:43:00;20.10;99.90
38239;DHT22;24035;48.900;9.188;2022-08-20T05:45:28;20.10;99.90
38239;DHT22;24035;48.900;9.188;2022-08-20T05:47:54;20.20;61.00
38239;DHT22;24035;48.900;9.188;2022-08-20T05:50:20;20.20;46.30
38239;DHT22;24035;48.900;9.188;2022-08-20T05:52:45;20.20;95.90
38239;DHT22;24035;48.900;9.188;2022-08-20T05:55:15;20.20;7.20
38239;DHT22;24035;48.900;9.188;2022-08-20T05:57:41;20.40;1.00
38239;DHT22;24035;48.900;9.188;2022-08-20T06:00:10;20.40;1.00
38239;DHT22;24035;48.900;9.188;2022-08-20T06:02:36;20.40;1.00
38239;DHT22;24035;48.900;9.188;2022-08-20T06:05:21;20.50;1.00
38239;DHT22;24035;48.900;9.188;2022-08-20T06:07:47;20.60;1.00
38239;DHT22;24035;48.900;9.188;2022-08-20T06:10:15;20.60;1.00
38239;DHT22;24035;48.900;9.188;2022-08-20T06:12:41;20.60;1.00
38239;DHT22;24035;48.900;9.188;2022-08-20T06:15:09;20.70;1.00
38239;DHT22;24035;48.900;9.188;2022-08-20T06:17:34;20.70;1.00
38239;DHT22;24035;48.900;9.188;2022-08-20T06:20:03;20.70;1.00
38239;DHT22;24035;48.900;9.188;2022-08-20T06:22:31;20.70;1.00
38239;DHT22;24035;48.900;9.188;2022-08-20T06:24:57;20.70;1.00
38239;DHT22;24035;48.900;9.188;2022-08-20T06:27:23;20.70;1.00
38239;DHT22;24035;48.900;9.188;2022-08-20T06:29:50;20.60;1.00
38239;DHT22;24035;48.900;9.188;2022-08-20T06:32:17;20.70;1.00
38239;DHT22;24035;48.900;9.188;2022-08-20T06:34:44;20.80;1.00
38239;DHT22;24035;48.900;9.188;2022-08-20T06:37:19;20.80;1.00
38239;DHT22;24035;48.900;9.188;2022-08-20T06:39:45;20.90;1.00
38239;DHT22;24035;48.900;9.188;2022-08-20T06:42:11;20.90;1.00
38239;DHT22;24035;48.900;9.188;2022-08-20T06:44:38;21.00;1.00
38239;DHT22;24035;48.900;9.188;2022-08-20T06:47:04;21.00;1.00
38239;DHT22;24035;48.900;9.188;2022-08-20T06:49:34;21.10;1.00
38239;DHT22;24035;48.900;9.188;2022-08-20T06:52:00;21.00;1.00
38239;DHT22;24035;48.900;9.188;2022-08-20T06:54:26;21.00;1.00
38239;DHT22;24035;48.900;9.188;2022-08-20T06:56:51;21.10;1.00
38239;DHT22;24035;48.900;9.188;2022-08-20T06:59:19;21.10;1.00
38239;DHT22;24035;48.900;9.188;2022-08-20T07:01:45;21.10;1.00
38239;DHT22;24035;48.900;9.188;2022-08-20T07:04:11;21.00;1.00
38239;DHT22;24035;48.900;9.188;2022-08-20T07:06:37;21.10;1.00
38239;DHT22;24035;48.900;9.188;2022-08-20T07:09:03;21.30;1.00
38239;DHT22;24035;48.900;9.188;2022-08-20T07:11:28;21.40;1.00
38239;DHT22;24035;48.900;9.188;2022-08-20T07:13:56;21.60;99.90
38239;DHT22;24035;48.900;9.188;2022-08-20T07:16:23;21.80;99.90
38239;DHT22;24035;48.900;9.188;2022-08-20T07:18:48;21.80;99.90
38239;DHT22;24035;48.900;9.188;2022-08-20T07:21:14;22.00;99.90
38239;DHT22;24035;48.900;9.188;2022-08-20T07:23:41;22.00;54.30
38239;DHT22;24035;48.900;9.188;2022-08-20T07:26:07;22.10;34.70
38239;DHT22;24035;48.900;9.188;2022-08-20T07:28:32;22.20;1.00
38239;DHT22;24035;48.900;9.188;2022-08-20T07:30:58;22.10;1.00
38239;DHT22;24035;48.900;9.188;2022-08-20T07:33:43;22.10;1.00
38239;DHT22;24035;48.900;9.188;2022-08-20T07:36:09;22.20;1.00
38239;DHT22;24035;48.900;9.188;2022-08-20T07:38:35;22.40;1.00
38239;DHT22;24035;48.900;9.188;2022-08-20T07:41:04;22.50;1.00
38239;DHT22;24035;48.900;9.188;2022-08-20T07:43:31;22.60;1.00
38239;DHT22;24035;48.900;9.188;2022-08-20T07:45:58;22.90;1.00
38239;DHT22;24035;48.900;9.188;2022-08-20T07:48:28;23.20;1.00
38239;DHT22;24035;48.900;9.188;2022-08-20T07:50:55;23.20;1.00
38239;DHT22;24035;48.900;9.188;2022-08-20T07:53:21;23.50;1.00
38239;DHT22;24035;48.900;9.188;2022-08-20T07:55:47;23.60;1.00
38239;DHT22;24035;48.900;9.188;2022-08-20T07:58:14;23.90;1.00
38239;DHT22;24035;48.900;9.188;2022-08-20T08:00:41;23.90;99.90
38239;DHT22;24035;48.900;9.188;2022-08-20T08:03:07;23.60;1.00
38239;DHT22;24035;48.900;9.188;2022-08-20T08:05:36;23.60;1.00
38239;DHT22;24035;48.900;9.188;2022-08-20T08:08:06;23.90;99.90
38239;DHT22;24035;48.900;9.188;2022-08-20T08:10:32;24.10;99.90
38239;DHT22;24035;48.900;9.188;2022-08-20T08:13:03;24.00;99.90
38239;DHT22;24035;48.900;9.188;2022-08-20T08:15:31;23.90;99.90
38239;DHT22;24035;48.900;9.188;2022-08-20T08:18:03;24.20;99.90
38239;DHT22;24035;48.900;9.188;2022-08-20T08:20:34;24.50;99.90
38239;DHT22;24035;48.900;9.188;2022-08-20T08:23:03;24.50;99.90
38239;DHT22;24035;48.900;9.188;2022-08-20T08:25:28;24.30;99.90
38239;DHT22;24035;48.900;9.188;2022-08-20T08:27:54;24.10;99.90
38239;DHT22;24035;48.900;9.188;2022-08-20T08:30:20;23.70;99.90
38239;DHT22;24035;48.900;9.188;2022-08-20T08:32:45;23.80;99.90
38239;DHT22;24035;48.900;9.188;2022-08-20T08:35:29;23.80;99.90
38239;DHT22;24035;48.900;9.188;2022-08-20T08:37:58;23.90;99.90
38239;DHT22;24035;48.900;9.188;2022-08-20T08:40:28;23.70;99.90
38239;DHT22;24035;48.900;9.188;2022-08-20T08:42:55;23.70;99.90
38239;DHT22;24035;48.900;9.188;2022-08-20T08:45:26;23.90;99.90
38239;DHT22;24035;48.900;9.188;2022-08-20T08:47:55;24.10;99.90
38239;DHT22;24035;48.900;9.188;2022-08-20T08:50:30;24.80;99.90
38239;DHT22;24035;48.900;9.188;2022-08-20T08:52:58;25.30;99.90
38239;DHT22;24035;48.900;9.188;2022-08-20T08:55:27;25.50;99.90
38239;DHT22;24035;48.900;9.188;2022-08-20T08:57:55;25.80;99.90
38239;DHT22;24035;48.900;9.188;2022-08-20T09:00:23;25.90;99.90
38239;DHT22;24035;48.900;9.188;2022-08-20T09:03:02;25.60;99.90
38239;DHT22;24035;48.900;9.188;2022-08-20T09:08:05;25.00;99.90
38239;DHT22;24035;48.900;9.188;2022-08-20T09:10:32;25.00;99.90
38239;DHT22;24035;48.900;9.188;2022-08-20T09:12:58;25.20;99.90
38239;DHT22;24035;48.900;9.188;2022-08-20T09:15:26;25.00;99.90
38239;DHT22;24035;48.900;9.188;2022-08-20T09:17:51;24.20;99.90
38239;DHT22;24035;48.900;9.188;2022-08-20T09:20:17;23.60;99.90
38239;DHT22;24035;48.900;9.188;2022-08-20T09:22:43;23.10;1.00
38239;DHT22;24035;48.900;9.188;2022-08-20T09:25:09;22.80;1.00
38239;DHT22;24035;48.900;9.188;2022-08-20T09:27:35;22.70;1.00
38239;DHT22;24035;48.900;9.188;2022-08-20T09:30:00;22.90;1.00
38239;DHT22;24035;48.900;9.188;2022-08-20T09:32:26;23.00;1.00
38239;DHT22;24035;48.900;9.188;2022-08-20T09:34:53;23.30;1.00
38239;DHT22;24035;48.900;9.188;2022-08-20T09:37:26;23.40;1.00
38239;DHT22;24035;48.900;9.188;2022-08-20T09:39:52;23.40;1.00
38239;DHT22;24035;48.900;9.188;2022-08-20T09:42:29;23.40;1.00
38239;DHT22;24035;48.900;9.188;2022-08-20T09:44:56;23.60;1.00
38239;DHT22;24035;48.900;9.188;2022-08-20T09:47:22;24.20;1.00
38239;DHT22;24035;48.900;9.188;2022-08-20T09:49:48;24.40;1.00
38239;DHT22;24035;48.900;9.188;2022-08-20T09:54:50;24.70;1.00
38239;DHT22;24035;48.900;9.188;2022-08-20T09:57:17;25.00;1.00
38239;DHT22;24035;48.900;9.188;2022-08-20T09:59:47;25.00;1.00
38239;DHT22;24035;48.900;9.188;2022-08-20T10:02:15;24.80;1.00
38239;DHT22;24035;48.900;9.188;2022-08-20T10:04:40;24.30;1.00
38239;DHT22;24035;48.900;9.188;2022-08-20T10:07:07;24.30;1.00
38239;DHT22;24035;48.900;9.188;2022-08-20T10:09:34;24.60;1.00
38239;DHT22;24035;48.900;9.188;2022-08-20T10:12:00;24.80;1.00
38239;DHT22;24035;48.900;9.188;2022-08-20T10:14:25;24.80;1.00
38239;DHT22;24035;48.900;9.188;2022-08-20T10:16:56;25.00;1.00
38239;DHT22;24035;48.900;9.188;2022-08-20T10:19:22;25.10;1.00
38239;DHT22;24035;48.900;9.188;2022-08-20T10:21:50;25.20;1.00
38239;DHT22;24035;48.900;9.188;2022-08-20T10:24:17;25.10;1.00
38239;DHT22;24035;48.900;9.188;2022-08-20T10:26:43;24.90;1.00
38239;DHT22;24035;48.900;9.188;2022-08-20T10:29:15;24.40;1.00
38239;DHT22;24035;48.900;9.188;2022-08-20T10:31:41;24.20;1.00
38239;DHT22;24035;48.900;9.188;2022-08-20T10:34:07;24.10;1.00
38239;DHT22;24035;48.900;9.188;2022-08-20T10:36:33;24.10;1.00
38239;DHT22;24035;48.900;9.188;2022-08-20T10:38:59;24.50;1.00
38239;DHT22;24035;48.900;9.188;2022-08-20T10:41:25;24.80;1.00
38239;DHT22;24035;48.900;9.188;2022-08-20T10:43:55;25.10;1.00
38239;DHT22;24035;48.900;9.188;2022-08-20T10:46:21;25.50;99.90
38239;DHT22;24035;48.900;9.188;2022-08-20T10:48:47;25.70;99.90
38239;DHT22;24035;48.900;9.188;2022-08-20T10:51:13;26.00;99.90
38239;DHT22;24035;48.900;9.188;2022-08-20T10:53:39;25.70;99.90
38239;DHT22;24035;48.900;9.188;2022-08-20T10:56:04;25.40;99.90
38239;DHT22;24035;48.900;9.188;2022-08-20T10:58:30;25.00;1.00
38239;DHT22;24035;48.900;9.188;2022-08-20T11:00:56;24.50;1.00
38239;DHT22;24035;48.900;9.188;2022-08-20T11:03:22;24.20;1.00
38239;DHT22;24035;48.900;9.188;2022-08-20T11:05:47;24.20;1.00
38239;DHT22;24035;48.900;9.188;2022-08-20T11:08:13;24.40;1.00
38239;DHT22;24035;48.900;9.188;2022-08-20T11:10:39;24.90;1.00
38239;DHT22;24035;48.900;9.188;2022-08-20T11:13:06;25.20;1.00
38239;DHT22;24035;48.900;9.188;2022-08-20T11:15:35;25.60;1.00
38239;DHT22;24035;48.900;9.188;2022-08-20T11:18:02;26.00;99.90
38239;DHT22;24035;48.900;9.188;2022-08-20T11:20:28;25.30;1.00
38239;DHT22;24035;48.900;9.188;2022-08-20T11:22:56;25.10;1.00
38239;DHT22;24035;48.900;9.188;2022-08-20T11:25:22;25.00;1.00
38239;DHT22;24035;48.900;9.188;2022-08-20T11:27:50;24.50;1.00
38239;DHT22;24035;48.900;9.188;2022-08-20T11:30:23;24.40;1.00
38239;DHT22;24035;48.900;9.188;2022-08-20T11:32:49;24.30;1.00
38239;DHT22;24035;48.900;9.188;2022-08-20T11:35:15;24.00;1.00
38239;DHT22;24035;48.900;9.188;2022-08-20T11:37:41;23.90;1.00
38239;DHT22;24035;48.900;9.188;2022-08-20T11:40:08;24.00;1.00
38239;DHT22;24035;48.900;9.188;2022-08-20T11:42:37;24.10;1.00
38239;DHT22;24035;48.900;9.188;2022-08-20T11:45:04;24.20;1.00
38239;DHT22;24035;48.900;9.188;2022-08-20T11:47:31;23.90;1.00
38239;DHT22;24035;48.900;9.188;2022-08-20T11:50:20;23.00;99.90
38239;DHT22;24035;48.900;9.188;2022-08-20T11:52:46;22.10;1.00
38239;DHT22;24035;48.900;9.188;2022-08-20T11:55:14;21.30;99.90
38239;DHT22;24035;48.900;9.188;2022-08-20T11:57:44;20.90;1.00
38239;DHT22;24035;48.900;9.188;2022-08-20T12:00:14;20.70;99.90
38239;DHT22;24035;48.900;9.188;2022-08-20T12:02:40;20.60;1.00
38239;DHT22;24035;48.900;9.188;2022-08-20T12:05:07;20.70;1.00
38239;DHT22;24035;48.900;9.188;2022-08-20T12:07:33;21.00;1.00
38239;DHT22;24035;48.900;9.188;2022-08-20T12:09:59;21.20;1.00
38239;DHT22;24035;48.900;9.188;2022-08-20T12:12:24;21.50;99.90
38239;DHT22;24035;48.900;9.188;2022-08-20T12:14:51;21.70;99.90
38239;DHT22;24035;48.900;9.188;2022-08-20T12:17:23;22.00;99.90
38239;DHT22;24035;48.900;9.188;2022-08-20T12:19:52;22.20;99.90
38239;DHT22;24035;48.900;9.188;2022-08-20T12:22:18;22.40;99.90
38239;DHT22;24035;48.900;9.188;2022-08-20T12:24:44;22.60;99.90
38239;DHT22;24035;48.900;9.188;2022-08-20T12:27:10;23.10;1.00
38239;DHT22;24035;48.900;9.188;2022-08-20T12:29:40;23.40;1.00
38239;DHT22;24035;48.900;9.188;2022-08-20T12:32:06;23.90;1.00
38239;DHT22;24035;48.900;9.188;2022-08-20T12:34:34;24.10;1.00
38239;DHT22;24035;48.900;9.188;2022-08-20T12:37:07;24.20;1.00
38239;DHT22;24035;48.900;9.188;2022-08-20T12:39:33;24.30;1.00
38239;DHT22;24035;48.900;9.188;2022-08-20T12:42:02;24.30;1.00
38239;DHT22;24035;48.900;9.188;2022-08-20T12:44:28;24.20;1.00
38239;DHT22;24035;48.900;9.188;2022-08-20T12:49:35;23.30;1.00
38239;DHT22;24035;48.900;9.188;2022-08-20T12:52:02;22.70;1.00
38239;DHT22;24035;48.900;9.188;2022-08-20T12:54:28;22.00;99.90
38239;DHT22;24035;48.900;9.188;2022-08-20T12:56:53;20.80;29.10
38239;DHT22;24035;48.900;9.188;2022-08-20T12:59:24;20.00;1.00
38239;DHT22;24035;48.900;9.188;2022-08-20T13:01:51;19.60;1.00
38239;DHT22;24035;48.900;9.188;2022-08-20T13:04:18;19.40;1.00
38239;DHT22;24035;48.900;9.188;2022-08-20T13:06:44;19.40;1.00
38239;DHT22;24035;48.900;9.188;2022-08-20T13:09:10;19.50;1.00
38239;DHT22;24035;48.900;9.188;2022-08-20T13:11:36;19.60;99.90
38239;DHT22;24035;48.900;9.188;2022-08-20T13:14:02;19.60;1.00
38239;DHT22;24035;48.900;9.188;2022-08-20T13:16:32;19.80;99.90
38239;DHT22;24035;48.900;9.188;2022-08-20T13:18:58;19.90;1.00
38239;DHT22;24035;48.900;9.188;2022-08-20T13:21:24;20.10;1.00
38239;DHT22;24035;48.900;9.188;2022-08-20T13:23:50;20.40;99.90
38239;DHT22;24035;48.900;9.188;2022-08-20T13:26:16;20.50;1.00
38239;DHT22;24035;48.900;9.188;2022-08-20T13:28:42;20.90;99.90
38239;DHT22;24035;48.900;9.188;2022-08-20T13:31:07;21.40;99.90
38239;DHT22;24035;48.900;9.188;2022-08-20T13:33:33;21.80;43.70
38239;DHT22;24035;48.900;9.188;2022-08-20T13:35:59;22.10;1.00
38239;DHT22;24035;48.900;9.188;2022-08-20T13:38:25;22.60;99.90
38239;DHT22;24035;48.900;9.188;2022-08-20T13:40:51;23.20;1.00
38239;DHT22;24035;48.900;9.188;2022-08-20T13:43:16;23.80;1.00
38239;DHT22;24035;48.900;9.188;2022-08-20T13:45:42;24.20;1.00
38239;DHT22;24035;48.900;9.188;2022-08-20T13:48:08;24.70;1.00
38239;DHT22;24035;48.900;9.188;2022-08-20T13:50:34;25.10;1.00
38239;DHT22;24035;48.900;9.188;2022-08-20T13:53:00;25.40;99.90
38239;DHT22;24035;48.900;9.188;2022-08-20T13:55:27;25.50;1.00
38239;DHT22;24035;48.900;9.188;2022-08-20T13:57:54;25.20;1.00
38239;DHT22;24035;48.900;9.188;2022-08-20T14:00:29;25.30;1.00
38239;DHT22;24035;48.900;9.188;2022-08-20T14:02:55;25.30;21.90
38239;DHT22;24035;48.900;9.188;2022-08-20T14:05:21;25.70;99.90
38239;DHT22;24035;48.900;9.188;2022-08-20T14:07:48;26.00;1.00
38239;DHT22;24035;48.900;9.188;2022-08-20T14:10:20;26.20;1.00
38239;DHT22;24035;48.900;9.188;2022-08-20T14:12:46;25.90;27.60
38239;DHT22;24035;48.900;9.188;2022-08-20T14:15:12;26.00;1.00
38239;DHT22;24035;48.900;9.188;2022-08-20T14:17:47;26.00;1.00
38239;DHT22;24035;48.900;9.188;2022-08-20T14:20:18;25.70;99.90
38239;DHT22;24035;48.900;9.188;2022-08-20T14:22:44;25.40;1.00
38239;DHT22;24035;48.900;9.188;2022-08-20T14:25:11;25.50;1.00
38239;DHT22;24035;48.900;9.188;2022-08-20T14:27:38;25.60;1.00
38239;DHT22;24035;48.900;9.188;2022-08-20T14:30:08;25.80;1.00
38239;DHT22;24035;48.900;9.188;2022-08-20T14:32:34;25.90;99.90
38239;DHT22;24035;48.900;9.188;2022-08-20T14:35:00;25.80;1.00
38239;DHT22;24035;48.900;9.188;2022-08-20T14:37:32;25.80;1.00
38239;DHT22;24035;48.900;9.188;2022-08-20T14:39:59;26.10;1.00
38239;DHT22;24035;48.900;9.188;2022-08-20T14:42:26;26.30;1.00
38239;DHT22;24035;48.900;9.188;2022-08-20T14:44:54;26.80;99.90
38239;DHT22;24035;48.900;9.188;2022-08-20T14:47:26;27.10;1.00
38239;DHT22;24035;48.900;9.188;2022-08-20T14:49:55;27.10;1.00
38239;DHT22;24035;48.900;9.188;2022-08-20T14:52:23;26.50;1.00
38239;DHT22;24035;48.900;9.188;2022-08-20T14:54:49;26.50;1.00
38239;DHT22;24035;48.900;9.188;2022-08-20T14:57:16;26.40;1.00
38239;DHT22;24035;48.900;9.188;2022-08-20T14:59:42;26.10;1.00
38239;DHT22;24035;48.900;9.188;2022-08-20T15:02:10;26.00;99.90
38239;DHT22;24035;48.900;9.188;2022-08-20T15:04:37;26.00;99.90
38239;DHT22;24035;48.900;9.188;2022-08-20T15:07:05;25.90;99.90
38239;DHT22;24035;48.900;9.188;2022-08-20T15:09:33;25.70;99.90
38239;DHT22;24035;48.900;9.188;2022-08-20T15:11:59;25.50;99.90
38239;DHT22;24035;48.900;9.188;2022-08-20T15:14:25;25.40;19.00
38239;DHT22;24035;48.900;9.188;2022-08-20T15:16:53;25.30;99.90
38239;DHT22;24035;48.900;9.188;2022-08-20T15:19:18;25.10;99.90
38239;DHT22;24035;48.900;9.188;2022-08-20T15:21:44;25.20;99.90
38239;DHT22;24035;48.900;9.188;2022-08-20T15:24:10;25.20;57.50
38239;DHT22;24035;48.900;9.188;2022-08-20T15:26:36;25.10;1.00
38239;DHT22;24035;48.900;9.188;2022-08-20T15:29:02;25.00;1.00
38239;DHT22;24035;48.900;9.188;2022-08-20T15:31:27;24.90;1.00
38239;DHT22;24035;48.900;9.188;2022-08-20T15:33:53;25.00;1.00
38239;DHT22;24035;48.900;9.188;2022-08-20T15:36:19;25.00;1.00
38239;DHT22;24035;48.900;9.188;2022-08-20T15:38:45;25.10;1.00
38239;DHT22;24035;48.900;9.188;2022-08-20T15:41:11;25.30;1.00
38239;DHT22;24035;48.900;9.188;2022-08-20T15:43:36;25.30;99.90
38239;DHT22;24035;48.900;9.188;2022-08-20T15:46:03;25.50;99.90
38239;DHT22;24035;48.900;9.188;2022-08-20T15:48:36;25.40;70.70
38239;DHT22;24035;48.900;9.188;2022-08-20T15:51:31;25.40;62.20
38239;DHT22;24035;48.900;9.188;2022-08-20T15:54:16;25.40;70.50
38239;DHT22;24035;48.900;9.188;2022-08-20T15:56:56;25.50;40.80
38239;DHT22;24035;48.900;9.188;2022-08-20T15:59:46;25.50;37.30
38239;DHT22;24035;48.900;9.188;2022-08-20T16:07:18;25.40;16.10